sensor_id;sensor_type;location;lat;lon;timestamp;P1;P2;P0
64138;PMS5003;50435;43.700;-79.318;2023-02-15T00:01:05;25;25;
64138;PMS5003;50435;43.700;-79.318;2023-02-15T00:03:33;23;22;
64138;PMS5003;50435;43.700;-79.318;2023-02-15T00:06:01;21;21;
64138;PMS5003;50435;43.700;-79.318;2023-02-15T00:08:28;22;20;
64138;PMS5003;50435;43.700;-79.318;2023-02-15T00:11:03;23;23;
64138;PMS5003;50435;43.700;-79.318;2023-02-15T00:13:32;28;27;
64138;PMS5003;50435;43.700;-79.318;2023-02-15T00:16:01;24;23;
64138;PMS5003;50435;43.700;-79.318;2023-02-15T00:18:30;22;21;
64138;PMS5003;50435;43.700;-79.318;2023-02-15T00:20:57;24;23;
64138;PMS5003;50435;43.700;-79.318;2023-02-15T00:23:29;26;23;
64138;PMS5003;50435;43.700;-79.318;2023-02-15T00:26:03;31;27;
64138;PMS5003;50435;43.700;-79.318;2023-02-15T00:28:31;30;24;
64138;PMS5003;50435;43.700;-79.318;2023-02-15T00:31:03;28;26;
64138;PMS5003;50435;43.700;-79.318;2023-02-15T00:33:32;28;28;
64138;PMS5003;50435;43.700;-79.318;2023-02-15T00:36:00;24;24;
64138;PMS5003;50435;43.700;-79.318;2023-02-15T00:38:29;25;25;
64138;PMS5003;50435;43.700;-79.318;2023-02-15T00:40:59;26;26;
64138;PMS5003;50435;43.700;-79.318;2023-02-15T00:43:29;27;27;
64138;PMS5003;50435;43.700;-79.318;2023-02-15T00:45:57;30;26;
64138;PMS5003;50435;43.700;-79.318;2023-02-15T00:48:25;29;28;
64138;PMS5003;50435;43.700;-79.318;2023-02-15T00:50:53;30;26;
64138;PMS5003;50435;43.700;-79.318;2023-02-15T00:53:23;27;26;
64138;PMS5003;50435;43.700;-79.318;2023-02-15T00:55:51;28;26;
64138;PMS5003;50435;43.700;-79.318;2023-02-15T00:58:20;29;28;
64138;PMS5003;50435;43.700;-79.318;2023-02-15T01:00:47;25;23;
64138;PMS5003;50435;43.700;-79.318;2023-02-15T01:03:16;31;29;
64138;PMS5003;50435;43.700;-79.318;2023-02-15T01:05:46;28;28;
64138;PMS5003;50435;43.700;-79.318;2023-02-15T01:08:15;27;22;
64138;PMS5003;50435;43.700;-79.318;2023-02-15T01:10:42;31;30;
64138;PMS5003;50435;43.700;-79.318;2023-02-15T01:13:09;28;26;
64138;PMS5003;50435;43.700;-79.318;2023-02-15T01:15:37;32;30;
64138;PMS5003;50435;43.700;-79.318;2023-02-15T01:18:04;30;29;
64138;PMS5003;50435;43.700;-79.318;2023-02-15T01:20:33;31;28;
64138;PMS5003;50435;43.700;-79.318;2023-02-15T01:23:02;32;31;
64138;PMS5003;50435;43.700;-79.318;2023-02-15T01:25:32;32;29;
64138;PMS5003;50435;43.700;-79.318;2023-02-15T01:28:00;31;29;
64138;PMS5003;50435;43.700;-79.318;2023-02-15T01:30:28;31;31;
64138;PMS5003;50435;43.700;-79.318;2023-02-15T01:32:56;27;27;
64138;PMS5003;50435;43.700;-79.318;2023-02-15T01:35:24;29;27;
64138;PMS5003;50435;43.700;-79.318;2023-02-15T01:37:51;29;27;
64138;PMS5003;50435;43.700;-79.318;2023-02-15T01:40:19;32;30;
64138;PMS5003;50435;43.700;-79.318;2023-02-15T01:42:49;28;27;
64138;PMS5003;50435;43.700;-79.318;2023-02-15T01:45:19;36;31;
64138;PMS5003;50435;43.700;-79.318;2023-02-15T01:47:50;29;28;
64138;PMS5003;50435;43.700;-79.318;2023-02-15T01:50:22;26;25;
64138;PMS5003;50435;43.700;-79.318;2023-02-15T01:52:54;33;30;
64138;PMS5003;50435;43.700;-79.318;2023-02-15T01:55:26;34;27;
64138;PMS5003;50435;43.700;-79.318;2023-02-15T01:57:59;31;30;
64138;PMS5003;50435;43.700;-79.318;2023-02-15T02:00:27;33;29;
64138;PMS5003;50435;43.700;-79.318;2023-02-15T02:02:55;30;28;
64138;PMS5003;50435;43.700;-79.318;2023-02-15T02:05:24;31;29;
64138;PMS5003;50435;43.700;-79.318;2023-02-15T02:07:52;29;27;
64138;PMS5003;50435;43.700;-79.318;2023-02-15T02:10:22;30;27;
64138;PMS5003;50435;43.700;-79.318;2023-02-15T02:12:51;31;27;
64138;PMS5003;50435;43.700;-79.318;2023-02-15T02:15:23;32;29;
64138;PMS5003;50435;43.700;-79.318;2023-02-15T02:18:03;34;29;
64138;PMS5003;50435;43.700;-79.318;2023-02-15T02:20:45;27;25;
64138;PMS5003;50435;43.700;-79.318;2023-02-15T02:23:30;24;24;
64138;PMS5003;50435;43.700;-79.318;2023-02-15T02:27:49;26;23;
64138;PMS5003;50435;43.700;-79.318;2023-02-15T02:30:34;25;25;
64138;PMS5003;50435;43.700;-79.318;2023-02-15T02:33:32;26;24;
64138;PMS5003;50435;43.700;-79.318;2023-02-15T02:36:15;24;24;
64138;PMS5003;50435;43.700;-79.318;2023-02-15T02:38:51;24;21;
64138;PMS5003;50435;43.700;-79.318;2023-02-15T02:41:36;34;31;
64138;PMS5003;50435;43.700;-79.318;2023-02-15T02:44:12;21;21;
64138;PMS5003;50435;43.700;-79.318;2023-02-15T02:46:46;21;21;
64138;PMS5003;50435;43.700;-79.318;2023-02-15T02:49:17;29;29;
64138;PMS5003;50435;43.700;-79.318;2023-02-15T02:51:58;27;25;
64138;PMS5003;50435;43.700;-79.318;2023-02-15T02:54:26;29;25;
64138;PMS5003;50435;43.700;-79.318;2023-02-15T02:56:56;24;24;
64138;PMS5003;50435;43.700;-79.318;2023-02-15T02:59:29;24;20;
64138;PMS5003;50435;43.700;-79.318;2023-02-15T03:02:00;24;24;
64138;PMS5003;50435;43.700;-79.318;2023-02-15T03:04:32;21;21;
64138;PMS5003;50435;43.700;-79.318;2023-02-15T03:07:04;26;23;
64138;PMS5003;50435;43.700;-79.318;2023-02-15T03:09:37;21;20;
64138;PMS5003;50435;43.700;-79.318;2023-02-15T03:12:07;28;23;
64138;PMS5003;50435;43.700;-79.318;2023-02-15T03:14:38;24;22;
64138;PMS5003;50435;43.700;-79.318;2023-02-15T03:17:07;25;24;
64138;PMS5003;50435;43.700;-79.318;2023-02-15T03:19:36;26;26;
64138;PMS5003;50435;43.700;-79.318;2023-02-15T03:22:06;23;20;
64138;PMS5003;50435;43.700;-79.318;2023-02-15T03:24:41;19;18;
64138;PMS5003;50435;43.700;-79.318;2023-02-15T03:27:14;25;25;
64138;PMS5003;50435;43.700;-79.318;2023-02-15T03:29:46;18;17;
64138;PMS5003;50435;43.700;-79.318;2023-02-15T03:32:19;18;17;
64138;PMS5003;50435;43.700;-79.318;2023-02-15T03:34:47;20;17;
64138;PMS5003;50435;43.700;-79.318;2023-02-15T03:37:17;19;19;
64138;PMS5003;50435;43.700;-79.318;2023-02-15T03:39:54;17;17;
64138;PMS5003;50435;43.700;-79.318;2023-02-15T03:42:26;20;17;
64138;PMS5003;50435;43.700;-79.318;2023-02-15T03:44:58;18;17;
64138;PMS5003;50435;43.700;-79.318;2023-02-15T03:47:31;16;15;
64138;PMS5003;50435;43.700;-79.318;2023-02-15T03:50:03;17;17;
64138;PMS5003;50435;43.700;-79.318;2023-02-15T03:52:36;20;16;
64138;PMS5003;50435;43.700;-79.318;2023-02-15T03:55:04;17;17;
64138;PMS5003;50435;43.700;-79.318;2023-02-15T03:57:32;18;17;
64138;PMS5003;50435;43.700;-79.318;2023-02-15T04:00:04;16;16;
64138;PMS5003;50435;43.700;-79.318;2023-02-15T04:02:39;20;20;
64138;PMS5003;50435;43.700;-79.318;2023-02-15T04:05:11;14;12;
64138;PMS5003;50435;43.700;-79.318;2023-02-15T04:07:38;15;14;
64138;PMS5003;50435;43.700;-79.318;2023-02-15T04:10:07;18;17;
64138;PMS5003;50435;43.700;-79.318;2023-02-15T04:12:34;13;13;
64138;PMS5003;50435;43.700;-79.318;2023-02-15T04:15:02;18;15;
64138;PMS5003;50435;43.700;-79.318;2023-02-15T04:17:30;15;14;
64138;PMS5003;50435;43.700;-79.318;2023-02-15T04:19:57;15;13;
64138;PMS5003;50435;43.700;-79.318;2023-02-15T04:22:24;13;13;
64138;PMS5003;50435;43.700;-79.318;2023-02-15T04:24:52;17;16;
64138;PMS5003;50435;43.700;-79.318;2023-02-15T04:27:19;16;15;
64138;PMS5003;50435;43.700;-79.318;2023-02-15T04:29:46;16;16;
64138;PMS5003;50435;43.700;-79.318;2023-02-15T04:32:14;16;13;
64138;PMS5003;50435;43.700;-79.318;2023-02-15T04:34:41;15;13;
64138;PMS5003;50435;43.700;-79.318;2023-02-15T04:37:08;16;14;
64138;PMS5003;50435;43.700;-79.318;2023-02-15T04:39:36;14;14;
64138;PMS5003;50435;43.700;-79.318;2023-02-15T04:42:03;14;14;
64138;PMS5003;50435;43.700;-79.318;2023-02-15T04:44:31;16;16;
64138;PMS5003;50435;43.700;-79.318;2023-02-15T04:46:58;15;12;
64138;PMS5003;50435;43.700;-79.318;2023-02-15T04:49:26;16;15;
64138;PMS5003;50435;43.700;-79.318;2023-02-15T04:51:53;14;14;
64138;PMS5003;50435;43.700;-79.318;2023-02-15T04:54:20;16;13;
64138;PMS5003;50435;43.700;-79.318;2023-02-15T04:56:48;18;13;
64138;PMS5003;50435;43.700;-79.318;2023-02-15T04:59:16;15;13;
64138;PMS5003;50435;43.700;-79.318;2023-02-15T05:01:44;16;13;
64138;PMS5003;50435;43.700;-79.318;2023-02-15T05:04:11;14;14;
64138;PMS5003;50435;43.700;-79.318;2023-02-15T05:06:39;12;12;
64138;PMS5003;50435;43.700;-79.318;2023-02-15T05:09:06;14;10;
64138;PMS5003;50435;43.700;-79.318;2023-02-15T05:11:33;15;12;
64138;PMS5003;50435;43.700;-79.318;2023-02-15T05:14:01;13;10;
64138;PMS5003;50435;43.700;-79.318;2023-02-15T05:16:28;12;12;
64138;PMS5003;50435;43.700;-79.318;2023-02-15T05:18:55;13;13;
64138;PMS5003;50435;43.700;-79.318;2023-02-15T05:21:22;13;12;
64138;PMS5003;50435;43.700;-79.318;2023-02-15T05:23:50;9;9;
64138;PMS5003;50435;43.700;-79.318;2023-02-15T05:26:17;14;14;
64138;PMS5003;50435;43.700;-79.318;2023-02-15T05:28:48;14;13;
64138;PMS5003;50435;43.700;-79.318;2023-02-15T05:31:17;12;10;
64138;PMS5003;50435;43.700;-79.318;2023-02-15T05:33:45;13;12;
64138;PMS5003;50435;43.700;-79.318;2023-02-15T05:36:13;13;12;
64138;PMS5003;50435;43.700;-79.318;2023-02-15T05:38:40;10;10;
64138;PMS5003;50435;43.700;-79.318;2023-02-15T05:41:09;14;14;
64138;PMS5003;50435;43.700;-79.318;2023-02-15T05:43:37;13;12;
64138;PMS5003;50435;43.700;-79.318;2023-02-15T05:46:05;12;11;
64138;PMS5003;50435;43.700;-79.318;2023-02-15T05:48:34;13;12;
64138;PMS5003;50435;43.700;-79.318;2023-02-15T05:51:01;9;9;
64138;PMS5003;50435;43.700;-79.318;2023-02-15T05:53:31;13;13;
64138;PMS5003;50435;43.700;-79.318;2023-02-15T05:56:00;10;10;
64138;PMS5003;50435;43.700;-79.318;2023-02-15T05:58:29;7;7;
64138;PMS5003;50435;43.700;-79.318;2023-02-15T06:00:58;9;8;
64138;PMS5003;50435;43.700;-79.318;2023-02-15T06:03:26;14;10;
64138;PMS5003;50435;43.700;-79.318;2023-02-15T06:05:54;9;8;
64138;PMS5003;50435;43.700;-79.318;2023-02-15T06:08:22;13;13;
64138;PMS5003;50435;43.700;-79.318;2023-02-15T06:10:49;10;10;
64138;PMS5003;50435;43.700;-79.318;2023-02-15T06:13:17;9;9;
64138;PMS5003;50435;43.700;-79.318;2023-02-15T06:15:45;13;10;
64138;PMS5003;50435;43.700;-79.318;2023-02-15T06:18:12;9;9;
64138;PMS5003;50435;43.700;-79.318;2023-02-15T06:20:39;14;9;
64138;PMS5003;50435;43.700;-79.318;2023-02-15T06:23:07;12;10;
64138;PMS5003;50435;43.700;-79.318;2023-02-15T06:25:34;9;9;
64138;PMS5003;50435;43.700;-79.318;2023-02-15T06:28:02;9;9;
64138;PMS5003;50435;43.700;-79.318;2023-02-15T06:30:30;10;7;
64138;PMS5003;50435;43.700;-79.318;2023-02-15T06:32:57;10;10;
64138;PMS5003;50435;43.700;-79.318;2023-02-15T06:35:24;8;8;
64138;PMS5003;50435;43.700;-79.318;2023-02-15T06:37:51;8;8;
64138;PMS5003;50435;43.700;-79.318;2023-02-15T06:40:19;10;10;
64138;PMS5003;50435;43.700;-79.318;2023-02-15T06:42:47;7;7;
64138;PMS5003;50435;43.700;-79.318;2023-02-15T06:45:15;7;7;
64138;PMS5003;50435;43.700;-79.318;2023-02-15T06:47:42;7;7;
64138;PMS5003;50435;43.700;-79.318;2023-02-15T06:50:10;7;7;
64138;PMS5003;50435;43.700;-79.318;2023-02-15T06:52:38;7;7;
64138;PMS5003;50435;43.700;-79.318;2023-02-15T06:55:05;8;8;
64138;PMS5003;50435;43.700;-79.318;2023-02-15T06:57:33;7;6;
64138;PMS5003;50435;43.700;-79.318;2023-02-15T07:00:00;9;9;
64138;PMS5003;50435;43.700;-79.318;2023-02-15T07:02:28;6;6;
64138;PMS5003;50435;43.700;-79.318;2023-02-15T07:04:56;6;6;
64138;PMS5003;50435;43.700;-79.318;2023-02-15T07:07:23;6;5;
64138;PMS5003;50435;43.700;-79.318;2023-02-15T07:09:50;5;5;
64138;PMS5003;50435;43.700;-79.318;2023-02-15T07:12:17;6;6;
64138;PMS5003;50435;43.700;-79.318;2023-02-15T07:14:45;8;8;
64138;PMS5003;50435;43.700;-79.318;2023-02-15T07:17:13;6;6;
64138;PMS5003;50435;43.700;-79.318;2023-02-15T07:19:41;6;6;
64138;PMS5003;50435;43.700;-79.318;2023-02-15T07:22:08;6;5;
64138;PMS5003;50435;43.700;-79.318;2023-02-15T07:24:36;7;5;
64138;PMS5003;50435;43.700;-79.318;2023-02-15T07:27:03;8;8;
64138;PMS5003;50435;43.700;-79.318;2023-02-15T07:29:32;7;7;
64138;PMS5003;50435;43.700;-79.318;2023-02-15T07:31:59;5;5;
64138;PMS5003;50435;43.700;-79.318;2023-02-15T07:34:26;7;6;
64138;PMS5003;50435;43.700;-79.318;2023-02-15T07:36:53;7;7;
64138;PMS5003;50435;43.700;-79.318;2023-02-15T07:39:21;6;6;
64138;PMS5003;50435;43.700;-79.318;2023-02-15T07:41:48;7;6;
64138;PMS5003;50435;43.700;-79.318;2023-02-15T07:44:15;8;7;
64138;PMS5003;50435;43.700;-79.318;2023-02-15T07:46:42;7;6;
64138;PMS5003;50435;43.700;-79.318;2023-02-15T07:49:10;6;6;
64138;PMS5003;50435;43.700;-79.318;2023-02-15T07:51:37;7;7;
64138;PMS5003;50435;43.700;-79.318;2023-02-15T07:54:05;6;6;
64138;PMS5003;50435;43.700;-79.318;2023-02-15T07:56:32;6;5;
64138;PMS5003;50435;43.700;-79.318;2023-02-15T07:58:59;7;6;
64138;PMS5003;50435;43.700;-79.318;2023-02-15T08:01:27;7;6;
64138;PMS5003;50435;43.700;-79.318;2023-02-15T08:03:57;6;4;
64138;PMS5003;50435;43.700;-79.318;2023-02-15T08:06:27;7;7;
64138;PMS5003;50435;43.700;-79.318;2023-02-15T08:08:56;6;6;
64138;PMS5003;50435;43.700;-79.318;2023-02-15T08:11:24;6;5;
64138;PMS5003;50435;43.700;-79.318;2023-02-15T08:13:53;7;6;
64138;PMS5003;50435;43.700;-79.318;2023-02-15T08:16:23;5;5;
64138;PMS5003;50435;43.700;-79.318;2023-02-15T08:18:52;4;4;
64138;PMS5003;50435;43.700;-79.318;2023-02-15T08:21:20;4;4;
64138;PMS5003;50435;43.700;-79.318;2023-02-15T08:23:47;7;7;
64138;PMS5003;50435;43.700;-79.318;2023-02-15T08:26:15;5;5;
64138;PMS5003;50435;43.700;-79.318;2023-02-15T08:28:43;6;5;
64138;PMS5003;50435;43.700;-79.318;2023-02-15T08:31:11;5;5;
64138;PMS5003;50435;43.700;-79.318;2023-02-15T08:33:40;5;5;
64138;PMS5003;50435;43.700;-79.318;2023-02-15T08:36:11;6;6;
64138;PMS5003;50435;43.700;-79.318;2023-02-15T08:38:41;6;5;
64138;PMS5003;50435;43.700;-79.318;2023-02-15T08:41:09;5;5;
64138;PMS5003;50435;43.700;-79.318;2023-02-15T08:43:39;5;5;
64138;PMS5003;50435;43.700;-79.318;2023-02-15T08:46:08;10;6;
64138;PMS5003;50435;43.700;-79.318;2023-02-15T08:48:36;6;6;
64138;PMS5003;50435;43.700;-79.318;2023-02-15T08:51:05;6;5;
64138;PMS5003;50435;43.700;-79.318;2023-02-15T08:53:34;5;5;
64138;PMS5003;50435;43.700;-79.318;2023-02-15T08:56:01;4;4;
64138;PMS5003;50435;43.700;-79.318;2023-02-15T08:58:29;4;4;
64138;PMS5003;50435;43.700;-79.318;2023-02-15T09:00:57;5;5;
64138;PMS5003;50435;43.700;-79.318;2023-02-15T09:03:25;5;5;
64138;PMS5003;50435;43.700;-79.318;2023-02-15T09:05:56;3;3;
64138;PMS5003;50435;43.700;-79.318;2023-02-15T09:08:24;3;3;
64138;PMS5003;50435;43.700;-79.318;2023-02-15T09:10:52;7;6;
64138;PMS5003;50435;43.700;-79.318;2023-02-15T09:13:19;3;3;
64138;PMS5003;50435;43.700;-79.318;2023-02-15T09:15:47;4;4;
64138;PMS5003;50435;43.700;-79.318;2023-02-15T09:18:15;4;4;
64138;PMS5003;50435;43.700;-79.318;2023-02-15T09:20:43;6;5;
64138;PMS5003;50435;43.700;-79.318;2023-02-15T09:23:11;4;4;
64138;PMS5003;50435;43.700;-79.318;2023-02-15T09:25:38;4;4;
64138;PMS5003;50435;43.700;-79.318;2023-02-15T09:28:06;5;4;
64138;PMS5003;50435;43.700;-79.318;2023-02-15T09:30:33;4;4;
64138;PMS5003;50435;43.700;-79.318;2023-02-15T09:33:00;6;6;
64138;PMS5003;50435;43.700;-79.318;2023-02-15T09:35:28;5;5;
64138;PMS5003;50435;43.700;-79.318;2023-02-15T09:37:56;4;4;
64138;PMS5003;50435;43.700;-79.318;2023-02-15T09:40:23;4;4;
64138;PMS5003;50435;43.700;-79.318;2023-02-15T09:42:54;2;2;
64138;PMS5003;50435;43.700;-79.318;2023-02-15T09:45:41;3;3;
64138;PMS5003;50435;43.700;-79.318;2023-02-15T09:48:40;5;5;
64138;PMS5003;50435;43.700;-79.318;2023-02-15T09:51:14;5;5;
64138;PMS5003;50435;43.700;-79.318;2023-02-15T09:53:59;5;4;
64138;PMS5003;50435;43.700;-79.318;2023-02-15T09:56:37;4;4;
64138;PMS5003;50435;43.700;-79.318;2023-02-15T09:59:08;4;4;
64138;PMS5003;50435;43.700;-79.318;2023-02-15T10:01:49;4;4;
64138;PMS5003;50435;43.700;-79.318;2023-02-15T10:04:28;4;4;
64138;PMS5003;50435;43.700;-79.318;2023-02-15T10:07:12;2;2;
64138;PMS5003;50435;43.700;-79.318;2023-02-15T10:09:51;4;4;
64138;PMS5003;50435;43.700;-79.318;2023-02-15T10:12:33;5;5;
64138;PMS5003;50435;43.700;-79.318;2023-02-15T10:15:12;3;3;
64138;PMS5003;50435;43.700;-79.318;2023-02-15T10:17:50;4;4;
64138;PMS5003;50435;43.700;-79.318;2023-02-15T10:20:29;3;3;
64138;PMS5003;50435;43.700;-79.318;2023-02-15T10:23:08;7;6;
64138;PMS5003;50435;43.700;-79.318;2023-02-15T10:25:49;3;3;
64138;PMS5003;50435;43.700;-79.318;2023-02-15T10:28:23;5;5;
64138;PMS5003;50435;43.700;-79.318;2023-02-15T10:30:58;5;5;
64138;PMS5003;50435;43.700;-79.318;2023-02-15T10:33:37;3;3;
64138;PMS5003;50435;43.700;-79.318;2023-02-15T10:36:09;4;4;
64138;PMS5003;50435;43.700;-79.318;2023-02-15T10:38:47;4;4;
64138;PMS5003;50435;43.700;-79.318;2023-02-15T10:41:25;4;4;
64138;PMS5003;50435;43.700;-79.318;2023-02-15T10:44:07;4;4;
64138;PMS5003;50435;43.700;-79.318;2023-02-15T10:46:53;5;2;
64138;PMS5003;50435;43.700;-79.318;2023-02-15T10:49:34;5;5;
64138;PMS5003;50435;43.700;-79.318;2023-02-15T10:52:16;5;4;
64138;PMS5003;50435;43.700;-79.318;2023-02-15T10:54:54;5;5;
64138;PMS5003;50435;43.700;-79.318;2023-02-15T10:57:36;2;2;
64138;PMS5003;50435;43.700;-79.318;2023-02-15T11:00:13;3;3;
64138;PMS5003;50435;43.700;-79.318;2023-02-15T11:02:53;4;4;
64138;PMS5003;50435;43.700;-79.318;2023-02-15T11:05:41;4;4;
64138;PMS5003;50435;43.700;-79.318;2023-02-15T11:08:13;5;5;
64138;PMS5003;50435;43.700;-79.318;2023-02-15T11:10:42;4;4;
64138;PMS5003;50435;43.700;-79.318;2023-02-15T11:13:17;4;4;
64138;PMS5003;50435;43.700;-79.318;2023-02-15T11:15:46;3;3;
64138;PMS5003;50435;43.700;-79.318;2023-02-15T11:18:21;4;3;
64138;PMS5003;50435;43.700;-79.318;2023-02-15T11:20:56;4;4;
64138;PMS5003;50435;43.700;-79.318;2023-02-15T11:23:28;5;4;
64138;PMS5003;50435;43.700;-79.318;2023-02-15T11:25:59;4;4;
64138;PMS5003;50435;43.700;-79.318;2023-02-15T11:28:31;6;5;
64138;PMS5003;50435;43.700;-79.318;2023-02-15T11:31:10;7;4;
64138;PMS5003;50435;43.700;-79.318;2023-02-15T11:33:43;4;3;
64138;PMS5003;50435;43.700;-79.318;2023-02-15T11:36:14;6;5;
64138;PMS5003;50435;43.700;-79.318;2023-02-15T11:38:45;5;5;
64138;PMS5003;50435;43.700;-79.318;2023-02-15T11:41:17;3;3;
64138;PMS5003;50435;43.700;-79.318;2023-02-15T11:43:49;5;5;
64138;PMS5003;50435;43.700;-79.318;2023-02-15T11:46:21;4;4;
64138;PMS5003;50435;43.700;-79.318;2023-02-15T11:48:49;4;4;
64138;PMS5003;50435;43.700;-79.318;2023-02-15T11:51:17;4;4;
64138;PMS5003;50435;43.700;-79.318;2023-02-15T11:53:48;4;4;
64138;PMS5003;50435;43.700;-79.318;2023-02-15T11:56:17;4;4;
64138;PMS5003;50435;43.700;-79.318;2023-02-15T11:58:48;4;4;
64138;PMS5003;50435;43.700;-79.318;2023-02-15T12:01:21;6;4;
64138;PMS5003;50435;43.700;-79.318;2023-02-15T12:03:57;6;4;
64138;PMS5003;50435;43.700;-79.318;2023-02-15T12:06:30;4;4;
64138;PMS5003;50435;43.700;-79.318;2023-02-15T12:09:02;5;5;
64138;PMS5003;50435;43.700;-79.318;2023-02-15T12:11:37;6;5;
64138;PMS5003;50435;43.700;-79.318;2023-02-15T12:14:06;5;5;
64138;PMS5003;50435;43.700;-79.318;2023-02-15T12:16:40;5;4;
64138;PMS5003;50435;43.700;-79.318;2023-02-15T12:19:28;7;5;
64138;PMS5003;50435;43.700;-79.318;2023-02-15T12:21:59;6;5;
64138;PMS5003;50435;43.700;-79.318;2023-02-15T12:24:30;3;3;
64138;PMS5003;50435;43.700;-79.318;2023-02-15T12:27:02;5;4;
64138;PMS5003;50435;43.700;-79.318;2023-02-15T12:29:34;6;6;
64138;PMS5003;50435;43.700;-79.318;2023-02-15T12:32:09;4;4;
64138;PMS5003;50435;43.700;-79.318;2023-02-15T12:34:43;4;4;
64138;PMS5003;50435;43.700;-79.318;2023-02-15T12:37:15;6;6;
64138;PMS5003;50435;43.700;-79.318;2023-02-15T12:39:54;5;4;
64138;PMS5003;50435;43.700;-79.318;2023-02-15T12:42:24;5;5;
64138;PMS5003;50435;43.700;-79.318;2023-02-15T12:44:54;5;5;
64138;PMS5003;50435;43.700;-79.318;2023-02-15T12:47:23;6;6;
64138;PMS5003;50435;43.700;-79.318;2023-02-15T12:50:04;2;2;
64138;PMS5003;50435;43.700;-79.318;2023-02-15T12:52:35;5;4;
64138;PMS5003;50435;43.700;-79.318;2023-02-15T12:55:10;6;4;
64138;PMS5003;50435;43.700;-79.318;2023-02-15T12:57:44;5;5;
64138;PMS5003;50435;43.700;-79.318;2023-02-15T13:00:24;4;4;
64138;PMS5003;50435;43.700;-79.318;2023-02-15T13:02:54;3;3;
64138;PMS5003;50435;43.700;-79.318;2023-02-15T13:05:25;5;3;
64138;PMS5003;50435;43.700;-79.318;2023-02-15T13:07:58;3;3;
64138;PMS5003;50435;43.700;-79.318;2023-02-15T13:10:28;5;5;
64138;PMS5003;50435;43.700;-79.318;2023-02-15T13:12:59;6;5;
64138;PMS5003;50435;43.700;-79.318;2023-02-15T13:15:29;4;4;
64138;PMS5003;50435;43.700;-79.318;2023-02-15T13:18:01;5;4;
64138;PMS5003;50435;43.700;-79.318;2023-02-15T13:20:31;5;5;
64138;PMS5003;50435;43.700;-79.318;2023-02-15T13:23:02;4;4;
64138;PMS5003;50435;43.700;-79.318;2023-02-15T13:25:35;4;4;
64138;PMS5003;50435;43.700;-79.318;2023-02-15T13:28:10;4;4;
64138;PMS5003;50435;43.700;-79.318;2023-02-15T13:30:43;5;5;
64138;PMS5003;50435;43.700;-79.318;2023-02-15T13:33:14;4;4;
64138;PMS5003;50435;43.700;-79.318;2023-02-15T13:35:49;4;4;
64138;PMS5003;50435;43.700;-79.318;2023-02-15T13:38:30;4;4;
64138;PMS5003;50435;43.700;-79.318;2023-02-15T13:41:12;6;5;
64138;PMS5003;50435;43.700;-79.318;2023-02-15T13:43:46;4;4;
64138;PMS5003;50435;43.700;-79.318;2023-02-15T13:46:26;4;4;
64138;PMS5003;50435;43.700;-79.318;2023-02-15T13:49:12;6;6;
64138;PMS5003;50435;43.700;-79.318;2023-02-15T13:51:52;6;6;
64138;PMS5003;50435;43.700;-79.318;2023-02-15T13:54:34;5;5;
64138;PMS5003;50435;43.700;-79.318;2023-02-15T13:57:19;5;4;
64138;PMS5003;50435;43.700;-79.318;2023-02-15T14:00:03;3;3;
64138;PMS5003;50435;43.700;-79.318;2023-02-15T14:02:48;6;6;
64138;PMS5003;50435;43.700;-79.318;2023-02-15T14:05:34;6;6;
64138;PMS5003;50435;43.700;-79.318;2023-02-15T14:08:13;6;5;
64138;PMS5003;50435;43.700;-79.318;2023-02-15T14:10:51;6;6;
64138;PMS5003;50435;43.700;-79.318;2023-02-15T14:13:32;5;5;
64138;PMS5003;50435;43.700;-79.318;2023-02-15T14:16:13;4;4;
64138;PMS5003;50435;43.700;-79.318;2023-02-15T14:18:47;6;5;
64138;PMS5003;50435;43.700;-79.318;2023-02-15T14:21:21;3;3;
64138;PMS5003;50435;43.700;-79.318;2023-02-15T14:23:59;3;3;
64138;PMS5003;50435;43.700;-79.318;2023-02-15T14:26:41;8;5;
64138;PMS5003;50435;43.700;-79.318;2023-02-15T14:29:21;4;4;
64138;PMS5003;50435;43.700;-79.318;2023-02-15T14:32:02;6;3;
64138;PMS5003;50435;43.700;-79.318;2023-02-15T14:34:38;4;4;
64138;PMS5003;50435;43.700;-79.318;2023-02-15T14:37:13;4;4;
64138;PMS5003;50435;43.700;-79.318;2023-02-15T14:39:47;4;4;
64138;PMS5003;50435;43.700;-79.318;2023-02-15T14:42:23;5;5;
64138;PMS5003;50435;43.700;-79.318;2023-02-15T14:44:58;5;5;
64138;PMS5003;50435;43.700;-79.318;2023-02-15T14:47:32;7;5;
64138;PMS5003;50435;43.700;-79.318;2023-02-15T14:50:35;4;4;
64138;PMS5003;50435;43.700;-79.318;2023-02-15T14:53:38;4;4;
64138;PMS5003;50435;43.700;-79.318;2023-02-15T14:56:14;3;3;
64138;PMS5003;50435;43.700;-79.318;2023-02-15T14:59:19;5;5;
64138;PMS5003;50435;43.700;-79.318;2023-02-15T15:01:56;5;4;
64138;PMS5003;50435;43.700;-79.318;2023-02-15T15:04:27;7;6;
64138;PMS5003;50435;43.700;-79.318;2023-02-15T15:07:00;5;5;
64138;PMS5003;50435;43.700;-79.318;2023-02-15T15:09:35;4;4;
64138;PMS5003;50435;43.700;-79.318;2023-02-15T15:12:13;4;4;
64138;PMS5003;50435;43.700;-79.318;2023-02-15T15:15:02;5;5;
64138;PMS5003;50435;43.700;-79.318;2023-02-15T15:18:04;5;4;
64138;PMS5003;50435;43.700;-79.318;2023-02-15T15:20:41;7;5;
64138;PMS5003;50435;43.700;-79.318;2023-02-15T15:23:46;4;4;
64138;PMS5003;50435;43.700;-79.318;2023-02-15T15:26:22;6;4;
64138;PMS5003;50435;43.700;-79.318;2023-02-15T15:28:53;5;5;
64138;PMS5003;50435;43.700;-79.318;2023-02-15T15:31:24;4;4;
64138;PMS5003;50435;43.700;-79.318;2023-02-15T15:34:08;4;4;
64138;PMS5003;50435;43.700;-79.318;2023-02-15T15:36:52;4;4;
64138;PMS5003;50435;43.700;-79.318;2023-02-15T15:39:09;4;4;
64138;PMS5003;50435;43.700;-79.318;2023-02-15T15:41:55;5;5;
64138;PMS5003;50435;43.700;-79.318;2023-02-15T15:45:03;6;6;
64138;PMS5003;50435;43.700;-79.318;2023-02-15T15:47:52;7;6;
64138;PMS5003;50435;43.700;-79.318;2023-02-15T15:50:31;7;5;
64138;PMS5003;50435;43.700;-79.318;2023-02-15T15:52:59;6;6;
64138;PMS5003;50435;43.700;-79.318;2023-02-15T15:55:29;5;5;
64138;PMS5003;50435;43.700;-79.318;2023-02-15T15:58:00;4;4;
64138;PMS5003;50435;43.700;-79.318;2023-02-15T16:00:34;10;8;
64138;PMS5003;50435;43.700;-79.318;2023-02-15T16:03:12;5;5;
64138;PMS5003;50435;43.700;-79.318;2023-02-15T16:05:41;5;5;
64138;PMS5003;50435;43.700;-79.318;2023-02-15T16:08:08;6;6;
64138;PMS5003;50435;43.700;-79.318;2023-02-15T16:10:35;8;8;
64138;PMS5003;50435;43.700;-79.318;2023-02-15T16:13:04;6;6;
64138;PMS5003;50435;43.700;-79.318;2023-02-15T16:15:34;7;6;
64138;PMS5003;50435;43.700;-79.318;2023-02-15T16:18:03;8;5;
64138;PMS5003;50435;43.700;-79.318;2023-02-15T16:20:32;5;5;
64138;PMS5003;50435;43.700;-79.318;2023-02-15T16:23:07;5;4;
64138;PMS5003;50435;43.700;-79.318;2023-02-15T16:25:46;8;7;
64138;PMS5003;50435;43.700;-79.318;2023-02-15T16:28:20;6;6;
64138;PMS5003;50435;43.700;-79.318;2023-02-15T16:30:54;7;5;
64138;PMS5003;50435;43.700;-79.318;2023-02-15T16:33:36;8;7;
64138;PMS5003;50435;43.700;-79.318;2023-02-15T16:36:05;6;6;
64138;PMS5003;50435;43.700;-79.318;2023-02-15T16:39:05;6;6;
64138;PMS5003;50435;43.700;-79.318;2023-02-15T16:41:34;7;7;